OOCL Oakland — 3EKJ6 — position and weather

sailwx.info

Track history (hours):
 
Tides and Currents Weather Stations Pressure Air Temp Water Temp Dewpoint Dewpoint Depression Visibility Wind Speed Wind Dir Waves Ship Positions

OOCL Oakland

Last reported at 2016-Dec-05 17:33 UTC. Time now 2016-Dec-06 18:05 UTC.
Position S 26°40' E 153°22'.

Length 280 m; draft 11.6 m.

Type: Ship. MMSI: 372703235.

Date/timePositionNaut miles runAvg speedWind from/ knotsBaromVisibWave heightAir tempDewpointWater temp
2016-Dec-05 17:33S 26°40' E 153°22'1010.6
2016-Dec-05 16:33S 26°45' E 153°12'1514.8
2016-Dec-05 15:33S 27°00' E 153°14'1514.9
2016-Dec-05 14:33S 27°14' E 153°20'1111.1
2016-Dec-05 13:33S 27°22' E 153°11'0 0.1
2016-Dec-05 12:32S 27°22' E 153°11'0 0.0
2016-Dec-05 11:32S 27°22' E 153°11'0 0.0
2016-Dec-05 10:32S 27°22' E 153°11'0 0.0
2016-Dec-05 09:32S 27°22' E 153°11'0 0.0
2016-Dec-05 08:32S 27°22' E 153°11'0 0.0
2016-Dec-05 07:32S 27°22' E 153°11'0 0.0
2016-Dec-05 06:32S 27°22' E 153°11'0 0.0
2016-Dec-05 05:32S 27°22' E 153°11'0 0.0
2016-Dec-05 04:32S 27°22' E 153°11'0 0.0
2016-Dec-05 03:32S 27°22' E 153°11'0 0.0
2016-Dec-05 02:32S 27°22' E 153°11'0 0.0
2016-Dec-05 01:32S 27°22' E 153°11'0 0.0
2016-Dec-05 00:32S 27°22' E 153°11'0 0.0
2016-Dec-04 23:32S 27°22' E 153°11'0 0.0
2016-Dec-04 22:32S 27°22' E 153°11'0 0.0
2016-Dec-04 21:32S 27°22' E 153°11'0 0.0
2016-Dec-04 20:32S 27°22' E 153°11'0 0.0
2016-Dec-04 19:32S 27°22' E 153°11'0 0.0
2016-Dec-04 18:32S 27°22' E 153°11'0 0.0
2016-Dec-04 17:32S 27°22' E 153°11'0 0.0
2016-Dec-04 16:32S 27°22' E 153°11'0 0.0
2016-Dec-04 15:32S 27°22' E 153°11'0 0.0
2016-Dec-04 14:32S 27°22' E 153°11'0 0.0
2016-Dec-04 13:32S 27°22' E 153°11'0 0.4
2016-Dec-04 12:33S 27°21' E 153°11'8 8.5
2016-Dec-04 11:33S 27°15' E 153°18'1111.0
2016-Dec-04 10:33S 27°04' E 153°18'1716.8
2016-Dec-04 09:33S 26°50' E 153°09'10 9.6
2016-Dec-04 08:33S 26°42' E 153°14'1212.4
2016-Dec-04 07:33S 26°50' E 153°24'1817.5
2016-Dec-04 06:33S 27°03' E 153°37'1919.3
2016-Dec-04 05:34S 27°22' E 153°41'1919.4
2016-Dec-04 04:33S 27°41' E 153°45'1919.2
2016-Dec-04 03:33S 28°00' E 153°48'2019.8
2016-Dec-04 02:33S 28°20' E 153°49'25316.9
2016-Dec-03 11:33S 32°27' E 152°44'1615.9
2016-Dec-03 10:33S 32°42' E 152°38'1515.1
2016-Dec-03 09:33S 32°54' E 152°28'1616.0
2016-Dec-03 08:33S 33°10' E 152°23'  
2016-Nov-29 03:33S 39°05' E 145°58'1313.3
2016-Nov-29 02:33S 39°12' E 146°13'1313.0
2016-Nov-29 01:33S 39°09' E 146°29'1313.4
2016-Nov-29 00:33S 39°05' E 146°46'1413.9
2016-Nov-28 23:33S 39°01' E 147°03'1414.0
2016-Nov-28 22:33S 38°56' E 147°20'1413.8
2016-Nov-28 21:33S 38°51' E 147°36'2015.5
2016-Nov-28 20:17S 38°45' E 148°00'1216.5
2016-Nov-28 19:33S 38°42' E 148°15'1717.0
2016-Nov-28 18:32S 38°30' E 148°31'2217.6
2016-Nov-28 17:18S 38°18' E 148°54'1617.5
2016-Nov-28 16:22S 38°09' E 149°11'1417.6
2016-Nov-28 15:33S 38°01' E 149°26'1717.2
2016-Nov-28 14:33S 37°51' E 149°44'1717.1
2016-Nov-28 13:33S 37°41' E 150°02'1716.9
2016-Nov-28 12:33S 37°27' E 150°14'1717.5
2016-Nov-28 11:33S 37°10' E 150°21'1818.1
2016-Nov-28 10:33S 36°53' E 150°26'1918.5
2016-Nov-28 09:33S 36°35' E 150°32'1919.3
2016-Nov-28 08:33S 36°16' E 150°37'4019.7
2016-Nov-28 06:32S 35°38' E 150°50'2018.6
2016-Nov-28 05:29S 35°19' E 150°57'  
Track history (hours):
 
Tides and Currents Weather Stations Pressure Air Temp Water Temp Dewpoint Dewpoint Depression Visibility Wind Speed Wind Dir Waves Ship Positions

OOCL Oakland

Last reported at 2016-Dec-05 17:33 UTC. Time now 2016-Dec-06 18:05 UTC.
Position S 26°40' E 153°22'.

Length 280 m; draft 11.6 m.

Type: Ship. MMSI: 372703235.

Date/timePositionNaut miles runAvg speedWind from/ knotsBaromVisibWave heightAir tempDewpointWater temp
2016-Dec-05 17:33S 26°40' E 153°22'1010.6
2016-Dec-05 16:33S 26°45' E 153°12'1514.8
2016-Dec-05 15:33S 27°00' E 153°14'1514.9
2016-Dec-05 14:33S 27°14' E 153°20'1111.1
2016-Dec-05 13:33S 27°22' E 153°11'0 0.1
2016-Dec-05 12:32S 27°22' E 153°11'0 0.0
2016-Dec-05 11:32S 27°22' E 153°11'0 0.0
2016-Dec-05 10:32S 27°22' E 153°11'0 0.0
2016-Dec-05 09:32S 27°22' E 153°11'0 0.0
2016-Dec-05 08:32S 27°22' E 153°11'0 0.0
2016-Dec-05 07:32S 27°22' E 153°11'0 0.0
2016-Dec-05 06:32S 27°22' E 153°11'0 0.0
2016-Dec-05 05:32S 27°22' E 153°11'0 0.0
2016-Dec-05 04:32S 27°22' E 153°11'0 0.0
2016-Dec-05 03:32S 27°22' E 153°11'0 0.0
2016-Dec-05 02:32S 27°22' E 153°11'0 0.0
2016-Dec-05 01:32S 27°22' E 153°11'0 0.0
2016-Dec-05 00:32S 27°22' E 153°11'0 0.0
2016-Dec-04 23:32S 27°22' E 153°11'0 0.0
2016-Dec-04 22:32S 27°22' E 153°11'0 0.0
2016-Dec-04 21:32S 27°22' E 153°11'0 0.0
2016-Dec-04 20:32S 27°22' E 153°11'0 0.0
2016-Dec-04 19:32S 27°22' E 153°11'0 0.0
2016-Dec-04 18:32S 27°22' E 153°11'0 0.0
2016-Dec-04 17:32S 27°22' E 153°11'0 0.0
2016-Dec-04 16:32S 27°22' E 153°11'0 0.0
2016-Dec-04 15:32S 27°22' E 153°11'0 0.0
2016-Dec-04 14:32S 27°22' E 153°11'0 0.0
2016-Dec-04 13:32S 27°22' E 153°11'0 0.4
2016-Dec-04 12:33S 27°21' E 153°11'8 8.5
2016-Dec-04 11:33S 27°15' E 153°18'1111.0
2016-Dec-04 10:33S 27°04' E 153°18'1716.8
2016-Dec-04 09:33S 26°50' E 153°09'10 9.6
2016-Dec-04 08:33S 26°42' E 153°14'1212.4
2016-Dec-04 07:33S 26°50' E 153°24'1817.5
2016-Dec-04 06:33S 27°03' E 153°37'1919.3
2016-Dec-04 05:34S 27°22' E 153°41'1919.4
2016-Dec-04 04:33S 27°41' E 153°45'1919.2
2016-Dec-04 03:33S 28°00' E 153°48'2019.8
2016-Dec-04 02:33S 28°20' E 153°49'25316.9
2016-Dec-03 11:33S 32°27' E 152°44'1615.9
2016-Dec-03 10:33S 32°42' E 152°38'1515.1
2016-Dec-03 09:33S 32°54' E 152°28'1616.0
2016-Dec-03 08:33S 33°10' E 152°23'  
2016-Nov-29 03:33S 39°05' E 145°58'1313.3
2016-Nov-29 02:33S 39°12' E 146°13'1313.0
2016-Nov-29 01:33S 39°09' E 146°29'1313.4
2016-Nov-29 00:33S 39°05' E 146°46'1413.9
2016-Nov-28 23:33S 39°01' E 147°03'1414.0
2016-Nov-28 22:33S 38°56' E 147°20'1413.8
2016-Nov-28 21:33S 38°51' E 147°36'2015.5
2016-Nov-28 20:17S 38°45' E 148°00'1216.5
2016-Nov-28 19:33S 38°42' E 148°15'1717.0
2016-Nov-28 18:32S 38°30' E 148°31'2217.6
2016-Nov-28 17:18S 38°18' E 148°54'1617.5
2016-Nov-28 16:22S 38°09' E 149°11'1417.6
2016-Nov-28 15:33S 38°01' E 149°26'1717.2
2016-Nov-28 14:33S 37°51' E 149°44'1717.1
2016-Nov-28 13:33S 37°41' E 150°02'1716.9
2016-Nov-28 12:33S 37°27' E 150°14'1717.5
2016-Nov-28 11:33S 37°10' E 150°21'1818.1
2016-Nov-28 10:33S 36°53' E 150°26'1918.5
2016-Nov-28 09:33S 36°35' E 150°32'1919.3
2016-Nov-28 08:33S 36°16' E 150°37'4019.7
2016-Nov-28 06:32S 35°38' E 150°50'2018.6
2016-Nov-28 05:29S 35°19' E 150°57'  

Dump ship's entire track history